Troy, Illinois
Current Conditions -  °F | °C
As of 2:58 PM on Thursday 27 Nov 2014 (Local Time) from KBLV Reporting Station
Few Clouds Few Clouds  
Wind Chill: 24°   Ceiling: Unl
Heat Index: 33°   Visibility: 10mi
Dew Point: 23°   Wind: 10mph
Humidity: 67%   Direction: 310°NW
Pressure: 30.45"   Gusts: NA
Location:  38.73°N, 89.88°W
Report Text: KBLV 272058Z AUTO 31009KT 10SM FEW036 00/M05 A3045 RMK AO2 SLP320 T00041050 56005
Loading
Personal Weather Stations






























Interactive Weather Map New forecast layout! Learn more

10-Day Weather Forecast

Advertisements
Track Severe Weather on mobile